This demonstration page uses our WeatherBlox Daily Observations layout. Learn more.

36.19886, -115.1175

Hourly Observations for November 8, 2018

Temp ( °F °C ) Dew Point ( °F °C ) Humidity (%) Winds ( mph kmh ) Pressure ( in mb ) Visibility ( mi km ) Precip ( " mm )
12:53 am 00:53 Clear 55 12.8 13 -10.6 19 19 Calm 29.97 1015 10 16.09344 0 0
1:53 am 01:53 Clear 56 13.3 5 -15 13 13 N 3 6 30 1016 10 16.09344 0 0
2:53 am 02:53 Clear 60 15.6 3 -16.1 10 10 NNW 13 20 30 1016 10 16.09344 0 0
3:53 am 03:53 Clear 55 12.8 4 -15.6 12 12 N 7 11 30.06 1018 10 16.09344 0 0
4:53 am 04:53 Clear 57 13.9 4 -15.6 11 11 N 14 22 30.09 1019 10 16.09344 0 0
5:53 am 05:53 Clear 56 13.3 6 -14.4 13 13 N 14 22 30.12 1020 10 16.09344 0 0
6:53 am 06:53 Sunny 55 12.8 9 -12.8 16 16 N 14 22 30.18 1022 10 16.09344 0 0
7:53 am 07:53 Sunny 56 13.3 11 -11.7 17 17 N 16 26 30.21 1023 10 16.09344 0 0
8:53 am 08:53 Sunny 58 14.4 12 -11.1 16 16 N 15 24 30.24 1024 10 16.09344 0 0
9:53 am 09:53 Sunny 59 15 13 -10.6 16 16 NNW 18 30 30.24 1024 10 16.09344 0 0
10:53 am 10:53 Sunny 60 15.6 13 -10.6 16 16 N 22 35 30.24 1024 10 16.09344 0 0
11:53 am 11:53 Sunny 62 16.7 12 -11.1 14 14 NNW 22 35 30.21 1023 10 16.09344 0 0
12:53 pm 12:53 Sunny 63 17.2 11 -11.7 13 13 NNW 21 33 30.21 1023 10 16.09344 0 0
1:53 pm 13:53 Sunny 64 17.8 10 -12.2 12 12 NNW 20 31 30.21 1023 10 16.09344 0 0
2:53 pm 14:53 Sunny 65 18.3 7 -13.9 10 10 NE 15 24 30.18 1022 10 16.09344 0 0
3:53 pm 15:53 Sunny 64 17.8 4 -15.6 9 9 NNE 9 15 30.21 1023 10 16.09344 0 0
4:53 pm 16:53 Clear 61 16.1 7 -13.9 11 11 N 10 17 30.21 1023 10 16.09344 0 0
5:53 pm 17:53 Clear 59 15 6 -14.4 12 12 N 9 15 30.24 1024 10 16.09344 0 0
6:53 pm 18:53 Clear 57 13.9 5 -15 12 12 N 8 13 30.27 1025 10 16.09344 0 0
7:53 pm 19:53 Clear 56 13.3 3 -16.1 11 11 N 9 15 30.27 1025 10 16.09344 0 0
8:53 pm 20:53 Clear 54 12.2 3 -16.1 12 12 NNE 8 13 30.3 1026 10 16.09344 0 0
9:53 pm 21:53 Clear 55 12.8 2 -16.7 11 11 NNE 10 17 30.3 1026 10 16.09344 0 0
10:53 pm 22:53 Clear 54 12.2 3 -16.1 12 12 NNE 9 15 30.3 1026 10 16.09344 0 0
11:53 pm 23:53 Clear 52 11.1 4 -15.6 14 14 NNE 9 15 30.3 1026 10 16.09344 0 0

Powered by AerisWeather